sensor_id;sensor_type;location;lat;lon;timestamp;temperature;humidity
13982;DHT22;7065;50.880;5.502;2024-02-28T00:00:37;-0.10;99.90
13982;DHT22;7065;50.880;5.502;2024-02-28T00:03:03;-0.10;99.90
13982;DHT22;7065;50.880;5.502;2024-02-28T00:05:30;-0.10;99.90
13982;DHT22;7065;50.880;5.502;2024-02-28T00:07:57;-0.10;99.90
13982;DHT22;7065;50.880;5.502;2024-02-28T00:10:23;-0.10;99.90
13982;DHT22;7065;50.880;5.502;2024-02-28T00:12:48;-0.10;99.90
13982;DHT22;7065;50.880;5.502;2024-02-28T00:15:14;-0.10;99.90
13982;DHT22;7065;50.880;5.502;2024-02-28T00:17:41;-0.10;99.90
13982;DHT22;7065;50.880;5.502;2024-02-28T00:20:07;-0.10;99.90
13982;DHT22;7065;50.880;5.502;2024-02-28T00:22:35;-0.10;99.90
13982;DHT22;7065;50.880;5.502;2024-02-28T00:25:03;-0.10;99.90
13982;DHT22;7065;50.880;5.502;2024-02-28T00:27:28;-0.10;99.90
13982;DHT22;7065;50.880;5.502;2024-02-28T00:29:54;-0.10;99.90
13982;DHT22;7065;50.880;5.502;2024-02-28T00:32:21;-0.10;99.90
13982;DHT22;7065;50.880;5.502;2024-02-28T00:34:46;-0.10;99.90
13982;DHT22;7065;50.880;5.502;2024-02-28T00:37:12;-0.20;99.90
13982;DHT22;7065;50.880;5.502;2024-02-28T00:39:38;-0.20;99.90
13982;DHT22;7065;50.880;5.502;2024-02-28T00:42:03;-0.20;99.90
13982;DHT22;7065;50.880;5.502;2024-02-28T00:44:29;-0.20;99.90
13982;DHT22;7065;50.880;5.502;2024-02-28T00:46:55;-0.10;99.90
13982;DHT22;7065;50.880;5.502;2024-02-28T00:49:21;-0.10;99.90
13982;DHT22;7065;50.880;5.502;2024-02-28T00:51:47;-0.10;99.90
13982;DHT22;7065;50.880;5.502;2024-02-28T00:54:13;-0.10;99.90
13982;DHT22;7065;50.880;5.502;2024-02-28T00:56:38;-0.10;99.90
13982;DHT22;7065;50.880;5.502;2024-02-28T00:59:04;0.00;99.90
13982;DHT22;7065;50.880;5.502;2024-02-28T01:01:32;-0.10;99.90
13982;DHT22;7065;50.880;5.502;2024-02-28T01:03:57;-0.10;99.90
13982;DHT22;7065;50.880;5.502;2024-02-28T01:06:23;-0.10;99.90
13982;DHT22;7065;50.880;5.502;2024-02-28T01:08:48;-0.10;99.90
13982;DHT22;7065;50.880;5.502;2024-02-28T01:11:15;-0.10;99.90
13982;DHT22;7065;50.880;5.502;2024-02-28T01:13:40;-0.10;99.90
13982;DHT22;7065;50.880;5.502;2024-02-28T01:16:06;-0.10;99.90
13982;DHT22;7065;50.880;5.502;2024-02-28T01:18:32;-0.10;99.90
13982;DHT22;7065;50.880;5.502;2024-02-28T01:20:58;-0.10;99.90
13982;DHT22;7065;50.880;5.502;2024-02-28T01:23:23;-0.10;99.90
13982;DHT22;7065;50.880;5.502;2024-02-28T01:25:50;0.00;99.90
13982;DHT22;7065;50.880;5.502;2024-02-28T01:28:15;-0.10;99.90
13982;DHT22;7065;50.880;5.502;2024-02-28T01:30:41;-0.10;99.90
13982;DHT22;7065;50.880;5.502;2024-02-28T01:33:06;-0.10;99.90
13982;DHT22;7065;50.880;5.502;2024-02-28T01:35:32;-0.10;99.90
13982;DHT22;7065;50.880;5.502;2024-02-28T01:37:58;-0.10;99.90
13982;DHT22;7065;50.880;5.502;2024-02-28T01:40:23;-0.10;99.90
13982;DHT22;7065;50.880;5.502;2024-02-28T01:42:49;-0.10;99.90
13982;DHT22;7065;50.880;5.502;2024-02-28T01:45:15;-0.10;99.90
13982;DHT22;7065;50.880;5.502;2024-02-28T01:47:41;-0.10;99.90
13982;DHT22;7065;50.880;5.502;2024-02-28T01:50:08;-0.10;99.90
13982;DHT22;7065;50.880;5.502;2024-02-28T01:52:35;-0.10;99.90
13982;DHT22;7065;50.880;5.502;2024-02-28T01:55:01;-0.10;99.90
13982;DHT22;7065;50.880;5.502;2024-02-28T01:57:27;-0.10;99.90
13982;DHT22;7065;50.880;5.502;2024-02-28T01:59:53;-0.20;99.90
13982;DHT22;7065;50.880;5.502;2024-02-28T02:02:20;-0.10;99.90
13982;DHT22;7065;50.880;5.502;2024-02-28T02:04:47;-0.20;99.90
13982;DHT22;7065;50.880;5.502;2024-02-28T02:07:12;-0.20;99.90
13982;DHT22;7065;50.880;5.502;2024-02-28T02:09:38;-0.20;99.90
13982;DHT22;7065;50.880;5.502;2024-02-28T02:12:04;-0.20;99.90
13982;DHT22;7065;50.880;5.502;2024-02-28T02:14:30;-0.10;99.90
13982;DHT22;7065;50.880;5.502;2024-02-28T02:16:55;-0.20;99.90
13982;DHT22;7065;50.880;5.502;2024-02-28T02:19:21;-0.10;99.90
13982;DHT22;7065;50.880;5.502;2024-02-28T02:21:53;-0.10;99.90
13982;DHT22;7065;50.880;5.502;2024-02-28T02:24:20;-0.10;99.90
13982;DHT22;7065;50.880;5.502;2024-02-28T02:26:46;-0.10;99.90
13982;DHT22;7065;50.880;5.502;2024-02-28T02:29:13;-0.10;99.90
13982;DHT22;7065;50.880;5.502;2024-02-28T02:31:38;-0.10;99.90
13982;DHT22;7065;50.880;5.502;2024-02-28T02:34:04;-0.10;99.90
13982;DHT22;7065;50.880;5.502;2024-02-28T02:36:30;-0.10;99.90
13982;DHT22;7065;50.880;5.502;2024-02-28T02:38:55;-0.10;99.90
13982;DHT22;7065;50.880;5.502;2024-02-28T02:41:21;-0.20;99.90
13982;DHT22;7065;50.880;5.502;2024-02-28T02:43:47;-0.20;99.90
13982;DHT22;7065;50.880;5.502;2024-02-28T02:46:12;-0.30;99.90
13982;DHT22;7065;50.880;5.502;2024-02-28T02:48:38;-0.30;99.90
13982;DHT22;7065;50.880;5.502;2024-02-28T02:51:04;-0.30;99.90
13982;DHT22;7065;50.880;5.502;2024-02-28T02:53:29;-0.30;99.90
13982;DHT22;7065;50.880;5.502;2024-02-28T02:55:55;-0.40;99.90
13982;DHT22;7065;50.880;5.502;2024-02-28T02:58:21;-0.40;99.90
13982;DHT22;7065;50.880;5.502;2024-02-28T03:00:47;-0.50;99.90
13982;DHT22;7065;50.880;5.502;2024-02-28T03:03:12;-0.50;99.90
13982;DHT22;7065;50.880;5.502;2024-02-28T03:05:38;-0.50;99.90
13982;DHT22;7065;50.880;5.502;2024-02-28T03:08:04;-0.50;99.90
13982;DHT22;7065;50.880;5.502;2024-02-28T03:10:29;-0.50;99.90
13982;DHT22;7065;50.880;5.502;2024-02-28T03:12:55;-0.50;99.90
13982;DHT22;7065;50.880;5.502;2024-02-28T03:15:21;-0.50;99.90
13982;DHT22;7065;50.880;5.502;2024-02-28T03:17:46;-0.50;99.90
13982;DHT22;7065;50.880;5.502;2024-02-28T03:20:12;-0.40;99.90
13982;DHT22;7065;50.880;5.502;2024-02-28T03:22:41;-0.30;99.90
13982;DHT22;7065;50.880;5.502;2024-02-28T03:25:07;-0.20;99.90
13982;DHT22;7065;50.880;5.502;2024-02-28T03:27:34;-0.10;99.90
13982;DHT22;7065;50.880;5.502;2024-02-28T03:29:59;-0.10;99.90
13982;DHT22;7065;50.880;5.502;2024-02-28T03:32:25;-0.10;99.90
13982;DHT22;7065;50.880;5.502;2024-02-28T03:34:51;0.00;99.90
13982;DHT22;7065;50.880;5.502;2024-02-28T03:37:16;-0.10;99.90
13982;DHT22;7065;50.880;5.502;2024-02-28T03:39:42;0.00;99.90
13982;DHT22;7065;50.880;5.502;2024-02-28T03:42:08;0.00;99.90
13982;DHT22;7065;50.880;5.502;2024-02-28T03:44:33;0.00;99.90
13982;DHT22;7065;50.880;5.502;2024-02-28T03:46:59;0.00;99.90
13982;DHT22;7065;50.880;5.502;2024-02-28T03:49:24;0.00;99.90
13982;DHT22;7065;50.880;5.502;2024-02-28T03:51:50;0.00;99.90
13982;DHT22;7065;50.880;5.502;2024-02-28T03:54:16;0.00;99.90
13982;DHT22;7065;50.880;5.502;2024-02-28T03:56:41;0.00;99.90
13982;DHT22;7065;50.880;5.502;2024-02-28T03:59:07;0.00;99.90
13982;DHT22;7065;50.880;5.502;2024-02-28T04:01:33;0.00;99.90
13982;DHT22;7065;50.880;5.502;2024-02-28T04:03:58;0.10;99.90
13982;DHT22;7065;50.880;5.502;2024-02-28T04:06:25;0.10;99.90
13982;DHT22;7065;50.880;5.502;2024-02-28T04:08:50;0.10;99.90
13982;DHT22;7065;50.880;5.502;2024-02-28T04:11:16;0.10;99.90
13982;DHT22;7065;50.880;5.502;2024-02-28T04:13:42;0.10;99.90
13982;DHT22;7065;50.880;5.502;2024-02-28T04:16:09;0.00;99.90
13982;DHT22;7065;50.880;5.502;2024-02-28T04:18:35;0.10;99.90
13982;DHT22;7065;50.880;5.502;2024-02-28T04:21:01;0.00;99.90
13982;DHT22;7065;50.880;5.502;2024-02-28T04:23:26;0.10;99.90
13982;DHT22;7065;50.880;5.502;2024-02-28T04:25:52;0.00;99.90
13982;DHT22;7065;50.880;5.502;2024-02-28T04:28:17;0.10;99.90
13982;DHT22;7065;50.880;5.502;2024-02-28T04:30:43;0.10;99.90
13982;DHT22;7065;50.880;5.502;2024-02-28T04:33:09;0.10;99.90
13982;DHT22;7065;50.880;5.502;2024-02-28T04:35:35;0.10;99.90
13982;DHT22;7065;50.880;5.502;2024-02-28T04:38:00;0.10;99.90
13982;DHT22;7065;50.880;5.502;2024-02-28T04:40:26;0.10;99.90
13982;DHT22;7065;50.880;5.502;2024-02-28T04:42:51;0.20;99.90
13982;DHT22;7065;50.880;5.502;2024-02-28T04:45:17;0.20;99.90
13982;DHT22;7065;50.880;5.502;2024-02-28T04:47:43;0.10;99.90
13982;DHT22;7065;50.880;5.502;2024-02-28T04:50:09;0.20;99.90
13982;DHT22;7065;50.880;5.502;2024-02-28T04:52:35;0.20;99.90
13982;DHT22;7065;50.880;5.502;2024-02-28T04:55:01;0.20;99.90
13982;DHT22;7065;50.880;5.502;2024-02-28T04:57:27;0.20;99.90
13982;DHT22;7065;50.880;5.502;2024-02-28T04:59:53;0.30;99.90
13982;DHT22;7065;50.880;5.502;2024-02-28T05:02:19;0.30;99.90
13982;DHT22;7065;50.880;5.502;2024-02-28T05:04:46;0.30;99.90
13982;DHT22;7065;50.880;5.502;2024-02-28T05:07:12;0.30;99.90
13982;DHT22;7065;50.880;5.502;2024-02-28T05:09:38;0.30;99.90
13982;DHT22;7065;50.880;5.502;2024-02-28T05:12:04;0.30;99.90
13982;DHT22;7065;50.880;5.502;2024-02-28T05:14:29;0.30;99.90
13982;DHT22;7065;50.880;5.502;2024-02-28T05:16:55;0.30;99.90
13982;DHT22;7065;50.880;5.502;2024-02-28T05:19:21;0.30;99.90
13982;DHT22;7065;50.880;5.502;2024-02-28T05:21:47;0.30;99.90
13982;DHT22;7065;50.880;5.502;2024-02-28T05:24:14;0.30;99.90
13982;DHT22;7065;50.880;5.502;2024-02-28T05:26:40;0.30;99.90
13982;DHT22;7065;50.880;5.502;2024-02-28T05:29:06;0.30;99.90
13982;DHT22;7065;50.880;5.502;2024-02-28T05:31:32;0.30;99.90
13982;DHT22;7065;50.880;5.502;2024-02-28T05:33:59;0.20;99.90
13982;DHT22;7065;50.880;5.502;2024-02-28T05:36:26;0.20;99.90
13982;DHT22;7065;50.880;5.502;2024-02-28T05:38:54;0.20;99.90
13982;DHT22;7065;50.880;5.502;2024-02-28T05:41:19;0.20;99.90
13982;DHT22;7065;50.880;5.502;2024-02-28T05:43:46;0.20;99.90
13982;DHT22;7065;50.880;5.502;2024-02-28T05:46:12;0.20;99.90
13982;DHT22;7065;50.880;5.502;2024-02-28T05:48:39;0.20;99.90
13982;DHT22;7065;50.880;5.502;2024-02-28T05:51:05;0.30;99.90
13982;DHT22;7065;50.880;5.502;2024-02-28T05:53:31;0.30;99.90
13982;DHT22;7065;50.880;5.502;2024-02-28T05:56:04;0.30;99.90
13982;DHT22;7065;50.880;5.502;2024-02-28T05:58:30;0.40;99.90
13982;DHT22;7065;50.880;5.502;2024-02-28T06:00:57;0.40;99.90
13982;DHT22;7065;50.880;5.502;2024-02-28T06:03:22;0.40;99.90
13982;DHT22;7065;50.880;5.502;2024-02-28T06:05:49;0.40;99.90
13982;DHT22;7065;50.880;5.502;2024-02-28T06:08:15;0.50;99.90
13982;DHT22;7065;50.880;5.502;2024-02-28T06:10:41;0.50;99.90
13982;DHT22;7065;50.880;5.502;2024-02-28T06:13:08;0.50;99.90
13982;DHT22;7065;50.880;5.502;2024-02-28T06:15:33;0.50;99.90
13982;DHT22;7065;50.880;5.502;2024-02-28T06:17:59;0.50;99.90
13982;DHT22;7065;50.880;5.502;2024-02-28T06:20:27;0.50;99.90
13982;DHT22;7065;50.880;5.502;2024-02-28T06:22:53;0.60;99.90
13982;DHT22;7065;50.880;5.502;2024-02-28T06:25:19;0.60;99.90
13982;DHT22;7065;50.880;5.502;2024-02-28T06:27:48;0.60;99.90
13982;DHT22;7065;50.880;5.502;2024-02-28T06:30:14;0.60;99.90
13982;DHT22;7065;50.880;5.502;2024-02-28T06:32:40;0.70;99.90
13982;DHT22;7065;50.880;5.502;2024-02-28T06:35:06;0.70;99.90
13982;DHT22;7065;50.880;5.502;2024-02-28T06:37:35;0.70;99.90
13982;DHT22;7065;50.880;5.502;2024-02-28T06:40:02;0.80;99.90
13982;DHT22;7065;50.880;5.502;2024-02-28T06:42:29;0.80;99.90
13982;DHT22;7065;50.880;5.502;2024-02-28T06:44:55;0.80;99.90
13982;DHT22;7065;50.880;5.502;2024-02-28T06:47:21;0.80;99.90
13982;DHT22;7065;50.880;5.502;2024-02-28T06:49:47;0.90;99.90
13982;DHT22;7065;50.880;5.502;2024-02-28T06:52:13;0.90;99.90
13982;DHT22;7065;50.880;5.502;2024-02-28T06:54:38;1.00;99.90
13982;DHT22;7065;50.880;5.502;2024-02-28T06:57:04;1.00;99.90
13982;DHT22;7065;50.880;5.502;2024-02-28T06:59:30;1.10;99.90
13982;DHT22;7065;50.880;5.502;2024-02-28T07:01:56;1.10;99.90
13982;DHT22;7065;50.880;5.502;2024-02-28T07:04:22;1.10;99.90
13982;DHT22;7065;50.880;5.502;2024-02-28T07:06:48;1.20;99.90
13982;DHT22;7065;50.880;5.502;2024-02-28T07:09:14;1.30;99.90
13982;DHT22;7065;50.880;5.502;2024-02-28T07:11:41;1.30;99.90
13982;DHT22;7065;50.880;5.502;2024-02-28T07:14:06;1.40;99.90
13982;DHT22;7065;50.880;5.502;2024-02-28T07:16:32;1.50;99.90
13982;DHT22;7065;50.880;5.502;2024-02-28T07:19:00;1.50;99.90
13982;DHT22;7065;50.880;5.502;2024-02-28T07:21:25;1.60;99.90
13982;DHT22;7065;50.880;5.502;2024-02-28T07:23:51;1.70;99.90
13982;DHT22;7065;50.880;5.502;2024-02-28T07:26:18;1.70;99.90
13982;DHT22;7065;50.880;5.502;2024-02-28T07:28:43;1.80;99.90
13982;DHT22;7065;50.880;5.502;2024-02-28T07:31:18;1.80;99.90
13982;DHT22;7065;50.880;5.502;2024-02-28T07:33:45;1.90;99.90
13982;DHT22;7065;50.880;5.502;2024-02-28T07:36:11;2.00;99.90
13982;DHT22;7065;50.880;5.502;2024-02-28T07:38:37;2.10;99.90
13982;DHT22;7065;50.880;5.502;2024-02-28T07:41:03;2.20;99.90
13982;DHT22;7065;50.880;5.502;2024-02-28T07:43:28;2.20;99.90
13982;DHT22;7065;50.880;5.502;2024-02-28T07:45:58;2.30;99.90
13982;DHT22;7065;50.880;5.502;2024-02-28T07:48:24;2.30;99.90
13982;DHT22;7065;50.880;5.502;2024-02-28T07:50:49;2.30;99.90
13982;DHT22;7065;50.880;5.502;2024-02-28T07:53:17;2.40;99.90
13982;DHT22;7065;50.880;5.502;2024-02-28T07:55:43;2.50;99.90
13982;DHT22;7065;50.880;5.502;2024-02-28T07:58:08;2.50;99.90
13982;DHT22;7065;50.880;5.502;2024-02-28T08:00:35;2.60;99.90
13982;DHT22;7065;50.880;5.502;2024-02-28T08:03:00;2.60;99.90
13982;DHT22;7065;50.880;5.502;2024-02-28T08:05:27;2.70;99.90
13982;DHT22;7065;50.880;5.502;2024-02-28T08:07:53;2.70;99.90
13982;DHT22;7065;50.880;5.502;2024-02-28T08:10:19;2.80;99.90
13982;DHT22;7065;50.880;5.502;2024-02-28T08:12:45;2.80;99.90
13982;DHT22;7065;50.880;5.502;2024-02-28T08:15:11;2.90;99.90
13982;DHT22;7065;50.880;5.502;2024-02-28T08:17:36;2.90;99.90
13982;DHT22;7065;50.880;5.502;2024-02-28T08:20:03;2.90;99.90
13982;DHT22;7065;50.880;5.502;2024-02-28T08:22:30;3.00;99.90
13982;DHT22;7065;50.880;5.502;2024-02-28T08:24:56;3.00;99.90
13982;DHT22;7065;50.880;5.502;2024-02-28T08:27:22;3.10;99.90
13982;DHT22;7065;50.880;5.502;2024-02-28T08:29:49;3.20;99.90
13982;DHT22;7065;50.880;5.502;2024-02-28T08:32:15;3.20;99.90
13982;DHT22;7065;50.880;5.502;2024-02-28T08:34:44;3.20;99.90
13982;DHT22;7065;50.880;5.502;2024-02-28T08:37:10;3.30;99.90
13982;DHT22;7065;50.880;5.502;2024-02-28T08:39:36;3.40;99.90
13982;DHT22;7065;50.880;5.502;2024-02-28T08:42:02;3.40;99.90
13982;DHT22;7065;50.880;5.502;2024-02-28T08:44:27;3.50;99.90
13982;DHT22;7065;50.880;5.502;2024-02-28T08:46:54;3.50;99.90
13982;DHT22;7065;50.880;5.502;2024-02-28T08:49:19;3.50;99.90
13982;DHT22;7065;50.880;5.502;2024-02-28T08:51:45;3.50;99.90
13982;DHT22;7065;50.880;5.502;2024-02-28T08:54:11;3.50;99.90
13982;DHT22;7065;50.880;5.502;2024-02-28T08:56:37;3.60;99.90
13982;DHT22;7065;50.880;5.502;2024-02-28T08:59:02;3.70;99.90
13982;DHT22;7065;50.880;5.502;2024-02-28T09:01:28;3.80;99.90
13982;DHT22;7065;50.880;5.502;2024-02-28T09:03:54;3.90;99.90
13982;DHT22;7065;50.880;5.502;2024-02-28T09:06:19;4.00;99.90
13982;DHT22;7065;50.880;5.502;2024-02-28T09:08:45;4.10;99.90
13982;DHT22;7065;50.880;5.502;2024-02-28T09:11:11;4.10;99.90
13982;DHT22;7065;50.880;5.502;2024-02-28T09:13:36;4.20;99.90
13982;DHT22;7065;50.880;5.502;2024-02-28T09:16:02;4.30;99.90
13982;DHT22;7065;50.880;5.502;2024-02-28T09:18:28;4.40;99.90
13982;DHT22;7065;50.880;5.502;2024-02-28T09:20:53;4.40;99.90
13982;DHT22;7065;50.880;5.502;2024-02-28T09:23:19;4.50;99.90
13982;DHT22;7065;50.880;5.502;2024-02-28T09:25:45;4.50;99.90
13982;DHT22;7065;50.880;5.502;2024-02-28T09:28:11;4.60;99.90
13982;DHT22;7065;50.880;5.502;2024-02-28T09:30:39;4.70;99.90
13982;DHT22;7065;50.880;5.502;2024-02-28T09:33:05;4.90;99.90
13982;DHT22;7065;50.880;5.502;2024-02-28T09:35:31;5.10;99.90
13982;DHT22;7065;50.880;5.502;2024-02-28T09:37:57;5.30;99.90
13982;DHT22;7065;50.880;5.502;2024-02-28T09:40:22;5.40;99.90
13982;DHT22;7065;50.880;5.502;2024-02-28T09:43:01;5.60;99.90
13982;DHT22;7065;50.880;5.502;2024-02-28T09:45:28;5.80;99.90
13982;DHT22;7065;50.880;5.502;2024-02-28T09:47:57;5.80;99.90
13982;DHT22;7065;50.880;5.502;2024-02-28T09:50:25;5.90;99.90
13982;DHT22;7065;50.880;5.502;2024-02-28T09:52:51;6.00;99.90
13982;DHT22;7065;50.880;5.502;2024-02-28T09:55:16;5.90;99.90
13982;DHT22;7065;50.880;5.502;2024-02-28T09:57:43;5.90;99.90
13982;DHT22;7065;50.880;5.502;2024-02-28T10:00:11;5.90;99.90
13982;DHT22;7065;50.880;5.502;2024-02-28T10:02:39;5.80;99.90
13982;DHT22;7065;50.880;5.502;2024-02-28T10:05:06;5.80;99.90
13982;DHT22;7065;50.880;5.502;2024-02-28T10:07:32;5.80;99.90
13982;DHT22;7065;50.880;5.502;2024-02-28T10:09:58;5.80;99.90
13982;DHT22;7065;50.880;5.502;2024-02-28T10:12:24;5.80;99.90
13982;DHT22;7065;50.880;5.502;2024-02-28T10:14:50;5.80;99.90
13982;DHT22;7065;50.880;5.502;2024-02-28T10:17:16;5.90;99.90
13982;DHT22;7065;50.880;5.502;2024-02-28T10:19:42;6.10;99.90
13982;DHT22;7065;50.880;5.502;2024-02-28T10:22:08;6.20;99.90
13982;DHT22;7065;50.880;5.502;2024-02-28T10:24:34;6.20;99.90
13982;DHT22;7065;50.880;5.502;2024-02-28T10:27:01;6.30;99.90
13982;DHT22;7065;50.880;5.502;2024-02-28T10:29:27;6.30;99.90
13982;DHT22;7065;50.880;5.502;2024-02-28T10:31:56;6.20;99.90
13982;DHT22;7065;50.880;5.502;2024-02-28T10:34:22;6.20;99.90
13982;DHT22;7065;50.880;5.502;2024-02-28T10:36:49;6.30;99.90
13982;DHT22;7065;50.880;5.502;2024-02-28T10:39:15;6.20;99.90
13982;DHT22;7065;50.880;5.502;2024-02-28T10:41:41;6.30;99.90
13982;DHT22;7065;50.880;5.502;2024-02-28T10:44:12;6.30;99.90
13982;DHT22;7065;50.880;5.502;2024-02-28T10:46:39;6.20;99.90
13982;DHT22;7065;50.880;5.502;2024-02-28T10:49:05;6.20;99.90
13982;DHT22;7065;50.880;5.502;2024-02-28T10:51:35;6.20;99.90
13982;DHT22;7065;50.880;5.502;2024-02-28T10:54:13;6.30;99.90
13982;DHT22;7065;50.880;5.502;2024-02-28T10:56:39;6.40;99.90
13982;DHT22;7065;50.880;5.502;2024-02-28T10:59:07;6.50;99.90
13982;DHT22;7065;50.880;5.502;2024-02-28T11:01:39;6.60;99.90
13982;DHT22;7065;50.880;5.502;2024-02-28T11:04:08;6.70;99.90
13982;DHT22;7065;50.880;5.502;2024-02-28T11:06:33;6.80;99.90
13982;DHT22;7065;50.880;5.502;2024-02-28T11:09:00;6.80;99.90
13982;DHT22;7065;50.880;5.502;2024-02-28T11:11:30;6.80;99.90
13982;DHT22;7065;50.880;5.502;2024-02-28T11:13:58;6.90;99.90
13982;DHT22;7065;50.880;5.502;2024-02-28T11:16:33;7.10;99.90
13982;DHT22;7065;50.880;5.502;2024-02-28T11:19:00;7.20;99.90
13982;DHT22;7065;50.880;5.502;2024-02-28T11:21:27;7.30;99.90
13982;DHT22;7065;50.880;5.502;2024-02-28T11:24:00;7.40;99.90
13982;DHT22;7065;50.880;5.502;2024-02-28T11:26:27;7.60;99.90
13982;DHT22;7065;50.880;5.502;2024-02-28T11:28:56;7.70;99.90
13982;DHT22;7065;50.880;5.502;2024-02-28T11:31:22;7.80;99.90
13982;DHT22;7065;50.880;5.502;2024-02-28T11:33:48;7.80;99.90
13982;DHT22;7065;50.880;5.502;2024-02-28T11:36:14;7.90;99.90
13982;DHT22;7065;50.880;5.502;2024-02-28T11:38:40;7.80;99.90
13982;DHT22;7065;50.880;5.502;2024-02-28T11:41:06;7.90;99.90
13982;DHT22;7065;50.880;5.502;2024-02-28T11:43:32;7.90;99.90
13982;DHT22;7065;50.880;5.502;2024-02-28T11:46:00;7.80;99.90
13982;DHT22;7065;50.880;5.502;2024-02-28T11:48:26;7.70;99.90
13982;DHT22;7065;50.880;5.502;2024-02-28T11:50:53;7.80;99.90
13982;DHT22;7065;50.880;5.502;2024-02-28T11:53:19;7.80;99.90
13982;DHT22;7065;50.880;5.502;2024-02-28T11:55:48;7.80;99.90
13982;DHT22;7065;50.880;5.502;2024-02-28T11:58:14;7.80;99.90
13982;DHT22;7065;50.880;5.502;2024-02-28T12:00:49;7.90;99.90
13982;DHT22;7065;50.880;5.502;2024-02-28T12:03:23;7.90;99.90
13982;DHT22;7065;50.880;5.502;2024-02-28T12:05:50;8.00;99.90
13982;DHT22;7065;50.880;5.502;2024-02-28T12:08:19;8.00;99.90
13982;DHT22;7065;50.880;5.502;2024-02-28T12:10:48;8.00;99.90
13982;DHT22;7065;50.880;5.502;2024-02-28T12:13:17;8.10;99.90
13982;DHT22;7065;50.880;5.502;2024-02-28T12:15:44;8.30;99.90
13982;DHT22;7065;50.880;5.502;2024-02-28T12:18:11;8.40;99.90
13982;DHT22;7065;50.880;5.502;2024-02-28T12:20:37;8.50;99.90
13982;DHT22;7065;50.880;5.502;2024-02-28T12:23:04;8.60;99.90
13982;DHT22;7065;50.880;5.502;2024-02-28T12:25:30;8.70;99.90
13982;DHT22;7065;50.880;5.502;2024-02-28T12:27:56;8.70;99.90
13982;DHT22;7065;50.880;5.502;2024-02-28T12:30:22;8.80;99.90
13982;DHT22;7065;50.880;5.502;2024-02-28T12:32:47;8.90;99.90
13982;DHT22;7065;50.880;5.502;2024-02-28T12:35:13;9.00;99.90
13982;DHT22;7065;50.880;5.502;2024-02-28T12:37:39;9.10;99.90
13982;DHT22;7065;50.880;5.502;2024-02-28T12:40:05;9.20;99.90
13982;DHT22;7065;50.880;5.502;2024-02-28T12:42:32;9.20;99.90
13982;DHT22;7065;50.880;5.502;2024-02-28T12:44:58;9.30;99.90
13982;DHT22;7065;50.880;5.502;2024-02-28T12:47:24;9.30;99.90
13982;DHT22;7065;50.880;5.502;2024-02-28T12:49:49;9.40;99.90
13982;DHT22;7065;50.880;5.502;2024-02-28T12:52:15;9.40;99.90
13982;DHT22;7065;50.880;5.502;2024-02-28T12:54:41;9.40;99.90
13982;DHT22;7065;50.880;5.502;2024-02-28T12:57:06;9.40;99.90
13982;DHT22;7065;50.880;5.502;2024-02-28T12:59:34;9.30;99.90
13982;DHT22;7065;50.880;5.502;2024-02-28T13:02:00;9.40;99.90
13982;DHT22;7065;50.880;5.502;2024-02-28T13:04:25;9.40;99.90
13982;DHT22;7065;50.880;5.502;2024-02-28T13:06:53;9.40;99.90
13982;DHT22;7065;50.880;5.502;2024-02-28T13:09:19;9.50;99.90
13982;DHT22;7065;50.880;5.502;2024-02-28T13:11:47;9.50;99.90
13982;DHT22;7065;50.880;5.502;2024-02-28T13:14:12;9.50;99.90
13982;DHT22;7065;50.880;5.502;2024-02-28T13:16:38;9.50;99.90
13982;DHT22;7065;50.880;5.502;2024-02-28T13:19:04;9.60;99.90
13982;DHT22;7065;50.880;5.502;2024-02-28T13:21:30;9.60;99.90
13982;DHT22;7065;50.880;5.502;2024-02-28T13:23:58;9.60;99.90
13982;DHT22;7065;50.880;5.502;2024-02-28T13:26:24;9.50;99.90
13982;DHT22;7065;50.880;5.502;2024-02-28T13:28:50;9.50;99.90
13982;DHT22;7065;50.880;5.502;2024-02-28T13:31:16;9.50;99.90
13982;DHT22;7065;50.880;5.502;2024-02-28T13:33:42;9.50;99.90
13982;DHT22;7065;50.880;5.502;2024-02-28T13:36:08;9.50;99.90
13982;DHT22;7065;50.880;5.502;2024-02-28T13:38:34;9.50;99.90
13982;DHT22;7065;50.880;5.502;2024-02-28T13:41:00;9.60;99.90
13982;DHT22;7065;50.880;5.502;2024-02-28T13:43:26;9.70;99.90
13982;DHT22;7065;50.880;5.502;2024-02-28T13:45:52;9.70;99.90
13982;DHT22;7065;50.880;5.502;2024-02-28T13:48:23;9.80;99.90
13982;DHT22;7065;50.880;5.502;2024-02-28T13:50:59;9.80;99.90
13982;DHT22;7065;50.880;5.502;2024-02-28T13:53:25;9.70;99.90
13982;DHT22;7065;50.880;5.502;2024-02-28T13:55:51;9.70;99.90
13982;DHT22;7065;50.880;5.502;2024-02-28T13:58:17;9.70;99.90
13982;DHT22;7065;50.880;5.502;2024-02-28T14:00:46;9.60;99.90
13982;DHT22;7065;50.880;5.502;2024-02-28T14:03:13;9.60;99.90
13982;DHT22;7065;50.880;5.502;2024-02-28T14:05:39;9.70;99.90
13982;DHT22;7065;50.880;5.502;2024-02-28T14:08:06;9.60;99.90
13982;DHT22;7065;50.880;5.502;2024-02-28T14:10:37;9.70;99.90
13982;DHT22;7065;50.880;5.502;2024-02-28T14:13:03;9.70;99.90
13982;DHT22;7065;50.880;5.502;2024-02-28T14:15:28;9.70;99.90
13982;DHT22;7065;50.880;5.502;2024-02-28T14:17:54;9.80;99.90
13982;DHT22;7065;50.880;5.502;2024-02-28T14:20:20;9.90;99.90
13982;DHT22;7065;50.880;5.502;2024-02-28T14:22:46;10.00;99.90
13982;DHT22;7065;50.880;5.502;2024-02-28T14:25:12;10.10;99.90
13982;DHT22;7065;50.880;5.502;2024-02-28T14:27:39;10.10;99.90
13982;DHT22;7065;50.880;5.502;2024-02-28T14:30:07;10.00;99.90
13982;DHT22;7065;50.880;5.502;2024-02-28T14:32:37;9.90;99.90
13982;DHT22;7065;50.880;5.502;2024-02-28T14:35:05;9.80;99.90
13982;DHT22;7065;50.880;5.502;2024-02-28T14:37:32;9.80;99.90
13982;DHT22;7065;50.880;5.502;2024-02-28T14:40:02;9.70;99.90
13982;DHT22;7065;50.880;5.502;2024-02-28T14:42:30;9.70;99.90
13982;DHT22;7065;50.880;5.502;2024-02-28T14:44:56;9.70;99.90
13982;DHT22;7065;50.880;5.502;2024-02-28T14:47:22;9.80;99.90
13982;DHT22;7065;50.880;5.502;2024-02-28T14:49:47;9.80;99.90
13982;DHT22;7065;50.880;5.502;2024-02-28T14:52:13;9.80;99.90
13982;DHT22;7065;50.880;5.502;2024-02-28T14:54:40;9.80;99.90
13982;DHT22;7065;50.880;5.502;2024-02-28T14:57:06;9.90;99.90
13982;DHT22;7065;50.880;5.502;2024-02-28T14:59:32;9.90;99.90
13982;DHT22;7065;50.880;5.502;2024-02-28T15:01:59;9.90;99.90
13982;DHT22;7065;50.880;5.502;2024-02-28T15:04:25;9.80;99.90
13982;DHT22;7065;50.880;5.502;2024-02-28T15:06:50;9.80;99.90
13982;DHT22;7065;50.880;5.502;2024-02-28T15:09:20;9.70;99.90
13982;DHT22;7065;50.880;5.502;2024-02-28T15:11:48;9.70;99.90
13982;DHT22;7065;50.880;5.502;2024-02-28T15:14:14;9.70;99.90
13982;DHT22;7065;50.880;5.502;2024-02-28T15:16:40;9.70;99.90
13982;DHT22;7065;50.880;5.502;2024-02-28T15:19:06;9.70;99.90
13982;DHT22;7065;50.880;5.502;2024-02-28T15:21:31;9.70;99.90
13982;DHT22;7065;50.880;5.502;2024-02-28T15:23:57;9.80;99.90
13982;DHT22;7065;50.880;5.502;2024-02-28T15:26:23;9.90;99.90
13982;DHT22;7065;50.880;5.502;2024-02-28T15:28:49;9.90;99.90
13982;DHT22;7065;50.880;5.502;2024-02-28T15:31:15;10.00;99.90
13982;DHT22;7065;50.880;5.502;2024-02-28T15:33:41;9.90;99.90
13982;DHT22;7065;50.880;5.502;2024-02-28T15:36:07;9.90;99.90
13982;DHT22;7065;50.880;5.502;2024-02-28T15:38:33;9.90;99.90
13982;DHT22;7065;50.880;5.502;2024-02-28T15:40:59;9.80;99.90
13982;DHT22;7065;50.880;5.502;2024-02-28T15:43:25;9.80;99.90
13982;DHT22;7065;50.880;5.502;2024-02-28T15:45:50;9.80;99.90
13982;DHT22;7065;50.880;5.502;2024-02-28T15:48:16;9.70;99.90
13982;DHT22;7065;50.880;5.502;2024-02-28T15:50:42;9.70;99.90